sensor_id;sensor_type;location;lat;lon;timestamp;pressure;altitude;pressure_sealevel;temperature;humidity
60583;BME280;46415;47.536;19.066;2023-04-08T00:00:12;100632.81;;;3.15;100.00
60583;BME280;46415;47.536;19.066;2023-04-08T00:03:16;100645.66;;;3.12;100.00
60583;BME280;46415;47.536;19.066;2023-04-08T00:06:18;100636.34;;;3.03;100.00
60583;BME280;46415;47.536;19.066;2023-04-08T00:09:21;100636.25;;;3.11;100.00
60583;BME280;46415;47.536;19.066;2023-04-08T00:12:24;100630.31;;;3.07;100.00
60583;BME280;46415;47.536;19.066;2023-04-08T00:15:27;100632.88;;;3.06;100.00
60583;BME280;46415;47.536;19.066;2023-04-08T00:18:29;100632.78;;;3.16;100.00
60583;BME280;46415;47.536;19.066;2023-04-08T00:21:32;100626.91;;;3.07;100.00
60583;BME280;46415;47.536;19.066;2023-04-08T00:24:34;100637.16;;;3.10;100.00
60583;BME280;46415;47.536;19.066;2023-04-08T00:27:40;100645.66;;;3.12;100.00
60583;BME280;46415;47.536;19.066;2023-04-08T00:30:42;100638.81;;;3.14;100.00
60583;BME280;46415;47.536;19.066;2023-04-08T00:33:45;100639.63;;;3.16;100.00
60583;BME280;46415;47.536;19.066;2023-04-08T00:36:47;100634.41;;;3.25;100.00
60583;BME280;46415;47.536;19.066;2023-04-08T00:39:50;100635.31;;;3.21;100.00
60583;BME280;46415;47.536;19.066;2023-04-08T00:42:55;100638.66;;;3.29;100.00
60583;BME280;46415;47.536;19.066;2023-04-08T00:45:58;100635.31;;;3.21;100.00
60583;BME280;46415;47.536;19.066;2023-04-08T00:49:00;100634.47;;;3.19;100.00
60583;BME280;46415;47.536;19.066;2023-04-08T00:52:03;100638.75;;;3.17;100.00
60583;BME280;46415;47.536;19.066;2023-04-08T00:55:06;100631.91;;;3.19;100.00
60583;BME280;46415;47.536;19.066;2023-04-08T00:58:09;100637.91;;;3.21;100.00
60583;BME280;46415;47.536;19.066;2023-04-08T01:01:56;100636.13;;;3.24;100.00
60583;BME280;46415;47.536;19.066;2023-04-08T01:04:39;100640.41;;;3.27;100.00
60583;BME280;46415;47.536;19.066;2023-04-08T01:07:46;100631.91;;;3.19;100.00
60583;BME280;46415;47.536;19.066;2023-04-08T01:10:52;100642.12;;;3.26;100.00
60583;BME280;46415;47.536;19.066;2023-04-08T01:14:00;100640.50;;;3.15;100.00
60583;BME280;46415;47.536;19.066;2023-04-08T01:17:07;100639.63;;;3.17;100.00
60583;BME280;46415;47.536;19.066;2023-04-08T01:20:11;100644.72;;;3.20;100.00
60583;BME280;46415;47.536;19.066;2023-04-08T01:23:24;100639.63;;;3.19;100.00
60583;BME280;46415;47.536;19.066;2023-04-08T01:26:31;100637.03;;;3.20;100.00
60583;BME280;46415;47.536;19.066;2023-04-08T01:29:34;100638.81;;;3.14;100.00
60583;BME280;46415;47.536;19.066;2023-04-08T01:32:39;100647.37;;;3.11;100.00
60583;BME280;46415;47.536;19.066;2023-04-08T01:35:44;100650.78;;;3.10;100.00
60583;BME280;46415;47.536;19.066;2023-04-08T01:38:47;100647.34;;;3.14;100.00
60583;BME280;46415;47.536;19.066;2023-04-08T01:41:51;100640.53;;;3.12;100.00
60583;BME280;46415;47.536;19.066;2023-04-08T01:44:55;100637.06;;;3.16;100.00
60583;BME280;46415;47.536;19.066;2023-04-08T01:47:58;100631.09;;;3.15;100.00
60583;BME280;46415;47.536;19.066;2023-04-08T01:51:04;100638.75;;;3.18;100.00
60583;BME280;46415;47.536;19.066;2023-04-08T01:54:09;100634.47;;;3.19;100.00
60583;BME280;46415;47.536;19.066;2023-04-08T01:57:13;100638.72;;;3.23;100.00
60583;BME280;46415;47.536;19.066;2023-04-08T02:00:24;100638.72;;;3.23;100.00
60583;BME280;46415;47.536;19.066;2023-04-08T02:03:27;100632.66;;;3.28;100.00
60583;BME280;46415;47.536;19.066;2023-04-08T02:06:31;100636.13;;;3.23;100.00
60583;BME280;46415;47.536;19.066;2023-04-08T02:09:35;100638.69;;;3.26;100.00
60583;BME280;46415;47.536;19.066;2023-04-08T02:12:37;100639.66;;;3.13;100.00
60583;BME280;46415;47.536;19.066;2023-04-08T02:15:45;100636.13;;;3.26;100.00
60583;BME280;46415;47.536;19.066;2023-04-08T02:18:57;100634.53;;;3.14;100.00
60583;BME280;46415;47.536;19.066;2023-04-08T02:22:08;100635.31;;;3.21;100.00
60583;BME280;46415;47.536;19.066;2023-04-08T02:25:12;100629.34;;;3.20;100.00
60583;BME280;46415;47.536;19.066;2023-04-08T02:28:17;100635.34;;;3.18;100.00
60583;BME280;46415;47.536;19.066;2023-04-08T02:31:19;100632.72;;;3.24;100.00
60583;BME280;46415;47.536;19.066;2023-04-08T02:34:23;100630.25;;;3.15;100.00
60583;BME280;46415;47.536;19.066;2023-04-08T02:37:29;100632.94;;;3.00;100.00
60583;BME280;46415;47.536;19.066;2023-04-08T02:40:35;100632.94;;;2.98;100.00
60583;BME280;46415;47.536;19.066;2023-04-08T02:43:38;100628.56;;;3.11;100.00
60583;BME280;46415;47.536;19.066;2023-04-08T02:46:40;100631.97;;;3.11;100.00
60583;BME280;46415;47.536;19.066;2023-04-08T02:49:43;100639.75;;;3.04;100.00
60583;BME280;46415;47.536;19.066;2023-04-08T02:52:46;100638.91;;;3.00;100.00
60583;BME280;46415;47.536;19.066;2023-04-08T02:59:10;100630.28;;;3.10;100.00
60583;BME280;46415;47.536;19.066;2023-04-08T03:02:13;100639.72;;;3.05;100.00
60583;BME280;46415;47.536;19.066;2023-04-08T03:05:16;100641.50;;;3.00;100.00
60583;BME280;46415;47.536;19.066;2023-04-08T03:08:19;100635.50;;;3.00;100.00
60583;BME280;46415;47.536;19.066;2023-04-08T03:11:21;100635.38;;;3.15;100.00
60583;BME280;46415;47.536;19.066;2023-04-08T03:14:24;100642.28;;;3.10;100.00
60583;BME280;46415;47.536;19.066;2023-04-08T03:17:26;100647.41;;;3.07;100.00
60583;BME280;46415;47.536;19.066;2023-04-08T03:20:33;100641.47;;;3.03;100.00
60583;BME280;46415;47.536;19.066;2023-04-08T03:23:36;100647.53;;;2.95;100.00
60583;BME280;46415;47.536;19.066;2023-04-08T03:26:38;100650.84;;;3.06;100.00
60583;BME280;46415;47.536;19.066;2023-04-08T03:29:41;100651.69;;;3.09;100.00
60583;BME280;46415;47.536;19.066;2023-04-08T03:32:44;100651.72;;;3.02;100.00
60583;BME280;46415;47.536;19.066;2023-04-08T03:35:46;100650.13;;;2.88;100.00
60583;BME280;46415;47.536;19.066;2023-04-08T03:38:49;100654.34;;;2.96;100.00
60583;BME280;46415;47.536;19.066;2023-04-08T03:41:52;100657.81;;;2.88;100.00
60583;BME280;46415;47.536;19.066;2023-04-08T03:44:54;100648.44;;;2.86;100.00
60583;BME280;46415;47.536;19.066;2023-04-08T03:47:57;100660.44;;;2.84;100.00
60583;BME280;46415;47.536;19.066;2023-04-08T03:51:00;100654.31;;;2.99;100.00
60583;BME280;46415;47.536;19.066;2023-04-08T03:54:03;100659.44;;;3.02;100.00
60583;BME280;46415;47.536;19.066;2023-04-08T03:57:05;100662.88;;;2.98;100.00
60583;BME280;46415;47.536;19.066;2023-04-08T04:00:08;100668.88;;;2.97;100.00
60583;BME280;46415;47.536;19.066;2023-04-08T04:03:14;100668.84;;;3.00;100.00
60583;BME280;46415;47.536;19.066;2023-04-08T04:06:17;100672.28;;;2.96;100.00
60583;BME280;46415;47.536;19.066;2023-04-08T04:09:19;100674.81;;;2.99;100.00
60583;BME280;46415;47.536;19.066;2023-04-08T04:12:22;100680.06;;;2.85;100.00
60583;BME280;46415;47.536;19.066;2023-04-08T04:15:25;100678.41;;;2.79;100.00
60583;BME280;46415;47.536;19.066;2023-04-08T04:18:28;100680.94;;;2.84;100.00
60583;BME280;46415;47.536;19.066;2023-04-08T04:21:30;100684.31;;;2.86;100.00
60583;BME280;46415;47.536;19.066;2023-04-08T04:24:33;100681.78;;;2.83;100.00
60583;BME280;46415;47.536;19.066;2023-04-08T04:27:35;100683.50;;;2.85;100.00
60583;BME280;46415;47.536;19.066;2023-04-08T04:30:39;100685.19;;;2.83;100.00
60583;BME280;46415;47.536;19.066;2023-04-08T04:33:42;100685.97;;;2.98;100.00
60583;BME280;46415;47.536;19.066;2023-04-08T04:36:45;100687.59;;;3.05;100.00
60583;BME280;46415;47.536;19.066;2023-04-08T04:39:47;100691.03;;;3.02;100.00
60583;BME280;46415;47.536;19.066;2023-04-08T04:42:50;100690.16;;;3.05;100.00
60583;BME280;46415;47.536;19.066;2023-04-08T04:45:53;100691.94;;;2.97;100.00
60583;BME280;46415;47.536;19.066;2023-04-08T04:48:55;100690.19;;;3.02;100.00
60583;BME280;46415;47.536;19.066;2023-04-08T04:51:58;100687.59;;;3.06;100.00
60583;BME280;46415;47.536;19.066;2023-04-08T04:55:01;100692.66;;;3.14;100.00
60583;BME280;46415;47.536;19.066;2023-04-08T04:58:03;100691.84;;;3.06;100.00
60583;BME280;46415;47.536;19.066;2023-04-08T05:01:06;100698.69;;;3.10;100.00
60583;BME280;46415;47.536;19.066;2023-04-08T05:04:08;100700.41;;;3.09;100.00
60583;BME280;46415;47.536;19.066;2023-04-08T05:07:12;100708.00;;;3.18;100.00
60583;BME280;46415;47.536;19.066;2023-04-08T05:10:14;100698.69;;;3.07;100.00
60583;BME280;46415;47.536;19.066;2023-04-08T05:13:18;100706.34;;;3.13;100.00
60583;BME280;46415;47.536;19.066;2023-04-08T05:16:20;100706.22;;;3.26;100.00
60583;BME280;46415;47.536;19.066;2023-04-08T05:19:23;100711.31;;;3.31;100.00
60583;BME280;46415;47.536;19.066;2023-04-08T05:22:25;100715.63;;;3.26;100.00
60583;BME280;46415;47.536;19.066;2023-04-08T05:25:28;100709.69;;;3.19;100.00
60583;BME280;46415;47.536;19.066;2023-04-08T05:28:31;100710.56;;;3.20;100.00
60583;BME280;46415;47.536;19.066;2023-04-08T05:31:34;100722.53;;;3.21;100.00
60583;BME280;46415;47.536;19.066;2023-04-08T05:34:37;100723.25;;;3.35;100.00
60583;BME280;46415;47.536;19.066;2023-04-08T05:37:39;100725.00;;;3.28;100.00
60583;BME280;46415;47.536;19.066;2023-04-08T05:40:42;100720.78;;;3.24;100.00
60583;BME280;46415;47.536;19.066;2023-04-08T05:43:45;100728.37;;;3.35;100.00
60583;BME280;46415;47.536;19.066;2023-04-08T05:46:48;100729.22;;;3.37;100.00
60583;BME280;46415;47.536;19.066;2023-04-08T05:49:50;100724.00;;;3.46;100.00
60583;BME280;46415;47.536;19.066;2023-04-08T05:52:53;100730.81;;;3.50;100.00
60583;BME280;46415;47.536;19.066;2023-04-08T05:55:56;100733.34;;;3.53;100.00
60583;BME280;46415;47.536;19.066;2023-04-08T05:58:58;100735.91;;;3.55;100.00
60583;BME280;46415;47.536;19.066;2023-04-08T06:02:01;100732.37;;;3.63;100.00
60583;BME280;46415;47.536;19.066;2023-04-08T06:05:03;100732.31;;;3.69;100.00
60583;BME280;46415;47.536;19.066;2023-04-08T06:08:07;100739.25;;;3.61;100.00
60583;BME280;46415;47.536;19.066;2023-04-08T06:11:10;100736.75;;;3.54;100.00
60583;BME280;46415;47.536;19.066;2023-04-08T06:14:13;100740.12;;;3.62;100.00
60583;BME280;46415;47.536;19.066;2023-04-08T06:17:15;100740.16;;;3.57;100.00
60583;BME280;46415;47.536;19.066;2023-04-08T06:20:18;100744.41;;;3.58;100.00
60583;BME280;46415;47.536;19.066;2023-04-08T06:23:21;100752.09;;;3.61;100.00
60583;BME280;46415;47.536;19.066;2023-04-08T06:26:23;100743.41;;;3.75;100.00
60583;BME280;46415;47.536;19.066;2023-04-08T06:29:26;100751.97;;;3.72;100.00
60583;BME280;46415;47.536;19.066;2023-04-08T06:32:31;100757.97;;;3.69;100.00
60583;BME280;46415;47.536;19.066;2023-04-08T06:35:33;100757.97;;;3.74;100.00
60583;BME280;46415;47.536;19.066;2023-04-08T06:38:37;100763.06;;;3.76;100.00
60583;BME280;46415;47.536;19.066;2023-04-08T06:41:39;100757.91;;;3.79;100.00
60583;BME280;46415;47.536;19.066;2023-04-08T06:44:51;100760.44;;;3.83;100.00
60583;BME280;46415;47.536;19.066;2023-04-08T06:47:54;100764.75;;;3.78;100.00
60583;BME280;46415;47.536;19.066;2023-04-08T06:50:59;100763.03;;;3.79;100.00
60583;BME280;46415;47.536;19.066;2023-04-08T06:54:02;100768.87;;;3.94;100.00
60583;BME280;46415;47.536;19.066;2023-04-08T06:57:04;100767.16;;;3.95;100.00
60583;BME280;46415;47.536;19.066;2023-04-08T07:00:07;100761.09;;;4.03;100.00
60583;BME280;46415;47.536;19.066;2023-04-08T07:03:10;100768.84;;;3.99;100.00
60583;BME280;46415;47.536;19.066;2023-04-08T07:06:13;100776.53;;;3.99;100.00
60583;BME280;46415;47.536;19.066;2023-04-08T07:09:16;100779.19;;;3.91;100.00
60583;BME280;46415;47.536;19.066;2023-04-08T07:12:19;100773.06;;;4.03;100.00
60583;BME280;46415;47.536;19.066;2023-04-08T07:15:22;100773.88;;;4.06;100.00
60583;BME280;46415;47.536;19.066;2023-04-08T07:18:25;100774.78;;;4.04;100.00
60583;BME280;46415;47.536;19.066;2023-04-08T07:21:27;100780.69;;;4.10;100.00
60583;BME280;46415;47.536;19.066;2023-04-08T07:24:31;100781.56;;;4.06;100.00
60583;BME280;46415;47.536;19.066;2023-04-08T07:27:35;100786.75;;;4.05;100.00
60583;BME280;46415;47.536;19.066;2023-04-08T07:30:38;100799.53;;;4.09;100.00
60583;BME280;46415;47.536;19.066;2023-04-08T07:33:41;100794.41;;;4.08;100.00
60583;BME280;46415;47.536;19.066;2023-04-08T07:36:43;100798.75;;;4.00;100.00
60583;BME280;46415;47.536;19.066;2023-04-08T07:39:46;100796.91;;;4.14;100.00
60583;BME280;46415;47.536;19.066;2023-04-08T07:42:49;100807.13;;;4.17;100.00
60583;BME280;46415;47.536;19.066;2023-04-08T07:45:51;100807.06;;;4.23;100.00
60583;BME280;46415;47.536;19.066;2023-04-08T07:48:54;100814.78;;;4.25;100.00
60583;BME280;46415;47.536;19.066;2023-04-08T07:51:57;100814.56;;;4.43;100.00
60583;BME280;46415;47.536;19.066;2023-04-08T07:55:00;100820.75;;;4.28;100.00
60583;BME280;46415;47.536;19.066;2023-04-08T07:58:03;100830.97;;;4.34;100.00
60583;BME280;46415;47.536;19.066;2023-04-08T08:01:16;100827.50;;;4.35;100.00
60583;BME280;46415;47.536;19.066;2023-04-08T08:04:20;100831.03;;;4.27;100.00
60583;BME280;46415;47.536;19.066;2023-04-08T08:07:23;100841.38;;;4.22;100.00
60583;BME280;46415;47.536;19.066;2023-04-08T08:10:26;100832.75;;;4.26;100.00
60583;BME280;46415;47.536;19.066;2023-04-08T08:13:28;100834.34;;;4.36;100.00
60583;BME280;46415;47.536;19.066;2023-04-08T08:16:31;100828.47;;;4.28;100.00
60583;BME280;46415;47.536;19.066;2023-04-08T08:19:34;100830.13;;;4.31;100.00
60583;BME280;46415;47.536;19.066;2023-04-08T08:22:37;100828.38;;;4.34;100.00
60583;BME280;46415;47.536;19.066;2023-04-08T08:26:01;100836.91;;;4.36;100.00
60583;BME280;46415;47.536;19.066;2023-04-08T08:29:04;100836.91;;;4.39;100.00
60583;BME280;46415;47.536;19.066;2023-04-08T08:32:09;100836.03;;;4.39;100.00
60583;BME280;46415;47.536;19.066;2023-04-08T08:35:13;100849.03;;;4.24;100.00
60583;BME280;46415;47.536;19.066;2023-04-08T08:38:16;100849.03;;;4.25;100.00
60583;BME280;46415;47.536;19.066;2023-04-08T08:41:19;100844.59;;;4.38;100.00
60583;BME280;46415;47.536;19.066;2023-04-08T08:44:22;100847.81;;;4.58;100.00
60583;BME280;46415;47.536;19.066;2023-04-08T08:47:24;100843.69;;;4.43;100.00
60583;BME280;46415;47.536;19.066;2023-04-08T08:50:27;100850.53;;;4.46;100.00
60583;BME280;46415;47.536;19.066;2023-04-08T08:53:29;100850.34;;;4.61;100.00
60583;BME280;46415;47.536;19.066;2023-04-08T08:56:36;100860.81;;;4.46;100.00
60583;BME280;46415;47.536;19.066;2023-04-08T08:59:39;100862.66;;;4.35;100.00
60583;BME280;46415;47.536;19.066;2023-04-08T09:02:41;100860.97;;;4.29;100.00
60583;BME280;46415;47.536;19.066;2023-04-08T09:05:55;100861.69;;;4.43;100.00
60583;BME280;46415;47.536;19.066;2023-04-08T09:08:57;100870.91;;;4.60;100.00
60583;BME280;46415;47.536;19.066;2023-04-08T09:12:03;100868.91;;;4.86;100.00
60583;BME280;46415;47.536;19.066;2023-04-08T09:15:06;100876.38;;;5.03;100.00
60583;BME280;46415;47.536;19.066;2023-04-08T09:18:20;100873.03;;;4.99;100.00
60583;BME280;46415;47.536;19.066;2023-04-08T09:21:23;100875.84;;;4.78;100.00
60583;BME280;46415;47.536;19.066;2023-04-08T09:24:29;100883.69;;;4.66;100.00
60583;BME280;46415;47.536;19.066;2023-04-08T09:27:33;100886.12;;;4.78;100.00
60583;BME280;46415;47.536;19.066;2023-04-08T09:30:40;100885.34;;;4.71;100.00
60583;BME280;46415;47.536;19.066;2023-04-08T09:33:43;100889.75;;;4.62;100.00
60583;BME280;46415;47.536;19.066;2023-04-08T09:36:45;100889.56;;;4.78;100.00
60583;BME280;46415;47.536;19.066;2023-04-08T09:39:48;100900.63;;;4.85;100.00
60583;BME280;46415;47.536;19.066;2023-04-08T09:42:51;100898.03;;;4.88;100.00
60583;BME280;46415;47.536;19.066;2023-04-08T09:45:55;100892.81;;;4.92;100.00
60583;BME280;46415;47.536;19.066;2023-04-08T09:49:05;100895.38;;;4.94;100.00
60583;BME280;46415;47.536;19.066;2023-04-08T09:52:10;100904.81;;;4.92;100.00
60583;BME280;46415;47.536;19.066;2023-04-08T09:55:13;100888.41;;;5.02;100.00
60583;BME280;46415;47.536;19.066;2023-04-08T09:58:20;100894.31;;;5.09;100.00
60583;BME280;46415;47.536;19.066;2023-04-08T10:01:29;100900.28;;;5.12;100.00
60583;BME280;46415;47.536;19.066;2023-04-08T10:04:34;100896.88;;;5.09;100.00
60583;BME280;46415;47.536;19.066;2023-04-08T10:07:38;100901.28;;;5.01;100.00
60583;BME280;46415;47.536;19.066;2023-04-08T10:10:47;100906.53;;;4.93;100.00
60583;BME280;46415;47.536;19.066;2023-04-08T10:13:49;100899.59;;;4.98;100.00
60583;BME280;46415;47.536;19.066;2023-04-08T10:23:52;100910.38;;;5.26;100.00
60583;BME280;46415;47.536;19.066;2023-04-08T10:26:54;100912.88;;;5.33;100.00
60583;BME280;46415;47.536;19.066;2023-04-08T10:29:57;100903.31;;;5.42;100.00
60583;BME280;46415;47.536;19.066;2023-04-08T10:33:00;100902.91;;;5.69;100.00
60583;BME280;46415;47.536;19.066;2023-04-08T10:39:14;100905.56;;;5.64;100.00
60583;BME280;46415;47.536;19.066;2023-04-08T10:42:17;100902.72;;;5.81;100.00
60583;BME280;46415;47.536;19.066;2023-04-08T10:45:20;100894.22;;;5.76;100.00
60583;BME280;46415;47.536;19.066;2023-04-08T10:48:23;100894.41;;;5.64;100.00
60583;BME280;46415;47.536;19.066;2023-04-08T10:51:29;100902.03;;;5.70;100.00
60583;BME280;46415;47.536;19.066;2023-04-08T10:54:35;100901.16;;;5.71;100.00
60583;BME280;46415;47.536;19.066;2023-04-08T10:57:38;100900.97;;;5.83;100.00
60583;BME280;46415;47.536;19.066;2023-04-08T11:00:46;100894.63;;;6.05;100.00
60583;BME280;46415;47.536;19.066;2023-04-08T11:03:49;100902.47;;;5.99;100.00
60583;BME280;46415;47.536;19.066;2023-04-08T11:06:52;100904.63;;;5.68;100.00
60583;BME280;46415;47.536;19.066;2023-04-08T11:09:55;100907.78;;;5.86;100.00
60583;BME280;46415;47.536;19.066;2023-04-08T11:12:58;100902.19;;;6.14;100.00
60583;BME280;46415;47.536;19.066;2023-04-08T11:16:00;100893.66;;;6.12;100.00
60583;BME280;46415;47.536;19.066;2023-04-08T11:19:04;100896.12;;;6.19;100.00
60583;BME280;46415;47.536;19.066;2023-04-08T11:22:07;100898.81;;;6.12;100.00
60583;BME280;46415;47.536;19.066;2023-04-08T11:25:11;100903.44;;;5.91;100.00
60583;BME280;46415;47.536;19.066;2023-04-08T11:28:14;100900.75;;;5.97;100.00
60583;BME280;46415;47.536;19.066;2023-04-08T11:31:17;100904.19;;;5.97;100.00
60583;BME280;46415;47.536;19.066;2023-04-08T11:34:23;100898.91;;;6.06;100.00
60583;BME280;46415;47.536;19.066;2023-04-08T11:37:35;100908.91;;;6.23;100.00
60583;BME280;46415;47.536;19.066;2023-04-08T11:40:38;100904.44;;;6.34;100.00
60583;BME280;46415;47.536;19.066;2023-04-08T11:43:53;100899.94;;;6.44;100.00
60583;BME280;46415;47.536;19.066;2023-04-08T11:46:56;100906.66;;;6.54;100.00
60583;BME280;46415;47.536;19.066;2023-04-08T11:50:00;100910.41;;;6.82;100.00
60583;BME280;46415;47.536;19.066;2023-04-08T11:53:02;100916.13;;;6.96;100.00
60583;BME280;46415;47.536;19.066;2023-04-08T11:56:15;100910.38;;;6.84;100.00
60583;BME280;46415;47.536;19.066;2023-04-08T11:59:18;100906.06;;;6.84;100.00
60583;BME280;46415;47.536;19.066;2023-04-08T12:02:21;100911.91;;;6.92;100.00
60583;BME280;46415;47.536;19.066;2023-04-08T12:05:24;100913.56;;;6.96;100.00
60583;BME280;46415;47.536;19.066;2023-04-08T12:08:26;100909.69;;;6.74;100.00
60583;BME280;46415;47.536;19.066;2023-04-08T12:11:30;100908.47;;;6.92;100.00
60583;BME280;46415;47.536;19.066;2023-04-08T12:14:33;100909.28;;;6.95;100.00
60583;BME280;46415;47.536;19.066;2023-04-08T12:17:36;100912.59;;;7.01;100.00
60583;BME280;46415;47.536;19.066;2023-04-08T12:20:43;100909.03;;;7.08;100.00
60583;BME280;46415;47.536;19.066;2023-04-08T12:23:46;100910.25;;;7.30;100.00
60583;BME280;46415;47.536;19.066;2023-04-08T12:26:48;100904.00;;;7.40;100.00
60583;BME280;46415;47.536;19.066;2023-04-08T12:29:51;100909.72;;;7.54;100.00
60583;BME280;46415;47.536;19.066;2023-04-08T12:32:54;100899.44;;;7.51;100.00
60583;BME280;46415;47.536;19.066;2023-04-08T12:35:59;100902.72;;;7.59;100.00
60583;BME280;46415;47.536;19.066;2023-04-08T12:39:02;100897.53;;;7.61;100.00
60583;BME280;46415;47.536;19.066;2023-04-08T12:42:04;100900.69;;;7.72;100.00
60583;BME280;46415;47.536;19.066;2023-04-08T12:45:07;100900.59;;;8.10;100.00
60583;BME280;46415;47.536;19.066;2023-04-08T12:48:10;100902.81;;;8.26;100.00
60583;BME280;46415;47.536;19.066;2023-04-08T12:51:13;100908.31;;;8.47;100.00
60583;BME280;46415;47.536;19.066;2023-04-08T12:54:15;100895.38;;;8.47;100.00
60583;BME280;46415;47.536;19.066;2023-04-08T12:57:22;100896.41;;;8.40;99.69
60583;BME280;46415;47.536;19.066;2023-04-08T13:00:25;100894.13;;;8.62;97.45
60583;BME280;46415;47.536;19.066;2023-04-08T13:03:27;100895.84;;;8.62;97.82
60583;BME280;46415;47.536;19.066;2023-04-08T13:06:33;100896.78;;;8.25;97.74
60583;BME280;46415;47.536;19.066;2023-04-08T13:09:35;100895.38;;;8.13;100.00
60583;BME280;46415;47.536;19.066;2023-04-08T13:12:38;100897.56;;;7.95;100.00
60583;BME280;46415;47.536;19.066;2023-04-08T13:15:41;100892.62;;;7.86;100.00
60583;BME280;46415;47.536;19.066;2023-04-08T13:18:45;100888.69;;;7.69;100.00
60583;BME280;46415;47.536;19.066;2023-04-08T13:21:47;100897.72;;;7.89;100.00
60583;BME280;46415;47.536;19.066;2023-04-08T13:24:50;100888.84;;;7.99;100.00
60583;BME280;46415;47.536;19.066;2023-04-08T13:27:53;100889.91;;;7.92;100.00
60583;BME280;46415;47.536;19.066;2023-04-08T13:30:58;100884.56;;;7.98;99.44
60583;BME280;46415;47.536;19.066;2023-04-08T13:34:00;100891.75;;;8.20;97.69
60583;BME280;46415;47.536;19.066;2023-04-08T13:37:03;100881.72;;;8.08;97.78
60583;BME280;46415;47.536;19.066;2023-04-08T13:40:06;100882.44;;;8.13;95.39
60583;BME280;46415;47.536;19.066;2023-04-08T13:43:10;100880.87;;;8.08;98.54
60583;BME280;46415;47.536;19.066;2023-04-08T13:46:12;100868.22;;;7.97;99.95
60583;BME280;46415;47.536;19.066;2023-04-08T13:49:15;100878.50;;;7.99;100.00
60583;BME280;46415;47.536;19.066;2023-04-08T13:52:18;100877.56;;;8.03;100.00
60583;BME280;46415;47.536;19.066;2023-04-08T13:55:21;100882.47;;;8.12;100.00
60583;BME280;46415;47.536;19.066;2023-04-08T13:58:23;100888.13;;;8.28;100.00
60583;BME280;46415;47.536;19.066;2023-04-08T14:01:27;100887.19;;;8.32;100.00
60583;BME280;46415;47.536;19.066;2023-04-08T14:04:30;100883.31;;;8.12;96.38
60583;BME280;46415;47.536;19.066;2023-04-08T14:07:33;100875.28;;;7.91;99.66
60583;BME280;46415;47.536;19.066;2023-04-08T14:10:36;100886.78;;;7.77;100.00
60583;BME280;46415;47.536;19.066;2023-04-08T14:13:39;100890.91;;;7.86;100.00
60583;BME280;46415;47.536;19.066;2023-04-08T14:16:41;100885.47;;;7.60;100.00
60583;BME280;46415;47.536;19.066;2023-04-08T14:19:44;100886.66;;;7.45;100.00
60583;BME280;46415;47.536;19.066;2023-04-08T14:22:47;100882.56;;;7.36;100.00
60583;BME280;46415;47.536;19.066;2023-04-08T14:25:49;100886.81;;;7.39;100.00
60583;BME280;46415;47.536;19.066;2023-04-08T14:28:53;100894.63;;;7.36;100.00
60583;BME280;46415;47.536;19.066;2023-04-08T14:31:55;100889.97;;;7.52;100.00
60583;BME280;46415;47.536;19.066;2023-04-08T14:34:58;100891.19;;;7.37;99.29
60583;BME280;46415;47.536;19.066;2023-04-08T14:38:01;100896.06;;;7.49;98.70
60583;BME280;46415;47.536;19.066;2023-04-08T14:41:04;100887.63;;;7.41;100.00
60583;BME280;46415;47.536;19.066;2023-04-08T14:44:06;100891.56;;;7.57;99.68
60583;BME280;46415;47.536;19.066;2023-04-08T14:47:09;100893.25;;;7.58;97.05
60583;BME280;46415;47.536;19.066;2023-04-08T14:50:11;100893.81;;;7.72;94.64
60583;BME280;46415;47.536;19.066;2023-04-08T14:53:14;100891.47;;;7.62;97.14
60583;BME280;46415;47.536;19.066;2023-04-08T14:56:17;100888.94;;;7.59;98.92
60583;BME280;46415;47.536;19.066;2023-04-08T14:59:19;100887.22;;;7.59;97.67
60583;BME280;46415;47.536;19.066;2023-04-08T15:02:22;100892.28;;;7.64;100.00
60583;BME280;46415;47.536;19.066;2023-04-08T15:05:24;100883.06;;;7.52;97.73
60583;BME280;46415;47.536;19.066;2023-04-08T15:08:29;100881.44;;;7.50;100.00
60583;BME280;46415;47.536;19.066;2023-04-08T15:11:32;100882.56;;;7.38;100.00
60583;BME280;46415;47.536;19.066;2023-04-08T15:14:34;100886.81;;;7.01;100.00
60583;BME280;46415;47.536;19.066;2023-04-08T15:17:37;100882.41;;;7.04;98.39
60583;BME280;46415;47.536;19.066;2023-04-08T15:20:40;100880.56;;;7.11;98.34
60583;BME280;46415;47.536;19.066;2023-04-08T15:23:43;100883.22;;;7.08;100.00
60583;BME280;46415;47.536;19.066;2023-04-08T15:26:45;100882.75;;;7.27;100.00
60583;BME280;46415;47.536;19.066;2023-04-08T15:29:48;100882.09;;;7.19;100.00
60583;BME280;46415;47.536;19.066;2023-04-08T15:32:51;100882.38;;;7.07;100.00
60583;BME280;46415;47.536;19.066;2023-04-08T15:35:54;100884.78;;;7.15;100.00
60583;BME280;46415;47.536;19.066;2023-04-08T15:38:57;100890.87;;;7.11;100.00
60583;BME280;46415;47.536;19.066;2023-04-08T15:42:00;100889.13;;;7.13;100.00
60583;BME280;46415;47.536;19.066;2023-04-08T15:45:03;100885.97;;;6.98;100.00
60583;BME280;46415;47.536;19.066;2023-04-08T15:48:05;100898.19;;;6.90;100.00
60583;BME280;46415;47.536;19.066;2023-04-08T15:51:08;100902.97;;;6.67;100.00
60583;BME280;46415;47.536;19.066;2023-04-08T15:54:11;100901.41;;;6.57;100.00
60583;BME280;46415;47.536;19.066;2023-04-08T15:57:13;100899.19;;;6.39;100.00
60583;BME280;46415;47.536;19.066;2023-04-08T16:00:17;100900.50;;;6.13;100.00